KGNT/GNT METAR and TAF weather

Enter ICAO airport designator
Station Type Date Time Source
KGNT METAR 2021/07/24 19:15 UTC NOAA

KGNT 241915Z AUTO 15009KT 10SM VCTS SCT036 SCT047 SCT050 22/13 A3029 RMK AO2 LTG DSNT ALQS T02240129


Station Type Date Time Source
KGNT Decoded METAR 2021/07/24 19:15 UTC NOAA

GRANTS-MILAN MUNICIPAL AIRPORT , NM, United States (KGNT) 35-10N 107-54W 1987M
Jul 24, 2021 - 03:15 PM EDT / 2021.07.24 1915 UTC
Wind: from the SSE (150 degrees) at 10 MPH (9 KT):0
Visibility: 10 mile(s):0
Sky conditions: partly cloudy
Weather: thunder in the vicinity; Lightning observed
Temperature: 72.3 F (22.4 C)
Dew Point: 55.2 F (12.9 C)
Relative Humidity: 54%
Pressure (altimeter): 30.29 in. Hg (1025 hPa)
ob: KGNT 241915Z AUTO 15009KT 10SM VCTS SCT036 SCT047 SCT050 22/13 A3029 RMK AO2 LTG DSNT ALQS T02240129
cycle: 19

Station Type Date Time Source
KGNT TAF UTC NOAA

Error!

Example: see airport list